sensor_id;sensor_type;location;lat;lon;timestamp;P1;durP1;ratioP1;P2;durP2;ratioP2
61210;SDS011;47075;45.114;20.738;2022-12-20T00:00:50;29.30;;;12.05;;
61210;SDS011;47075;45.114;20.738;2022-12-20T00:03:16;24.92;;;12.00;;
61210;SDS011;47075;45.114;20.738;2022-12-20T00:05:44;21.65;;;10.27;;
61210;SDS011;47075;45.114;20.738;2022-12-20T00:08:10;23.48;;;12.00;;
61210;SDS011;47075;45.114;20.738;2022-12-20T00:10:37;25.45;;;12.40;;
61210;SDS011;47075;45.114;20.738;2022-12-20T00:13:04;25.77;;;11.73;;
61210;SDS011;47075;45.114;20.738;2022-12-20T00:15:30;17.17;;;7.95;;
61210;SDS011;47075;45.114;20.738;2022-12-20T00:17:56;24.17;;;10.55;;
61210;SDS011;47075;45.114;20.738;2022-12-20T00:20:22;25.60;;;12.63;;
61210;SDS011;47075;45.114;20.738;2022-12-20T00:22:49;25.83;;;12.57;;
61210;SDS011;47075;45.114;20.738;2022-12-20T00:25:15;25.25;;;12.50;;
61210;SDS011;47075;45.114;20.738;2022-12-20T00:27:41;25.02;;;12.63;;
61210;SDS011;47075;45.114;20.738;2022-12-20T00:30:07;25.05;;;12.82;;
61210;SDS011;47075;45.114;20.738;2022-12-20T00:32:33;24.73;;;12.85;;
61210;SDS011;47075;45.114;20.738;2022-12-20T00:35:00;27.02;;;13.05;;
61210;SDS011;47075;45.114;20.738;2022-12-20T00:37:26;27.05;;;13.57;;
61210;SDS011;47075;45.114;20.738;2022-12-20T00:39:52;31.55;;;14.48;;
61210;SDS011;47075;45.114;20.738;2022-12-20T00:42:18;28.00;;;13.90;;
61210;SDS011;47075;45.114;20.738;2022-12-20T00:44:44;23.98;;;11.63;;
61210;SDS011;47075;45.114;20.738;2022-12-20T00:47:10;28.73;;;14.57;;
61210;SDS011;47075;45.114;20.738;2022-12-20T00:49:36;27.50;;;14.05;;
61210;SDS011;47075;45.114;20.738;2022-12-20T00:52:03;27.20;;;13.93;;
61210;SDS011;47075;45.114;20.738;2022-12-20T00:54:29;28.23;;;14.48;;
61210;SDS011;47075;45.114;20.738;2022-12-20T00:56:55;25.73;;;13.90;;
61210;SDS011;47075;45.114;20.738;2022-12-20T00:59:21;27.63;;;13.27;;
61210;SDS011;47075;45.114;20.738;2022-12-20T01:01:47;29.25;;;14.15;;
61210;SDS011;47075;45.114;20.738;2022-12-20T01:04:14;29.70;;;14.18;;
61210;SDS011;47075;45.114;20.738;2022-12-20T01:06:40;28.35;;;13.90;;
61210;SDS011;47075;45.114;20.738;2022-12-20T01:09:06;29.55;;;13.70;;
61210;SDS011;47075;45.114;20.738;2022-12-20T01:11:33;30.30;;;13.32;;
61210;SDS011;47075;45.114;20.738;2022-12-20T01:14:06;25.70;;;13.00;;
61210;SDS011;47075;45.114;20.738;2022-12-20T01:16:34;26.52;;;13.70;;
61210;SDS011;47075;45.114;20.738;2022-12-20T01:19:01;27.60;;;14.07;;
61210;SDS011;47075;45.114;20.738;2022-12-20T01:21:27;25.15;;;13.15;;
61210;SDS011;47075;45.114;20.738;2022-12-20T01:23:53;25.92;;;12.75;;
61210;SDS011;47075;45.114;20.738;2022-12-20T01:26:20;28.38;;;14.23;;
61210;SDS011;47075;45.114;20.738;2022-12-20T01:28:47;29.92;;;13.68;;
61210;SDS011;47075;45.114;20.738;2022-12-20T01:31:15;27.63;;;13.18;;
61210;SDS011;47075;45.114;20.738;2022-12-20T01:33:42;27.48;;;14.00;;
61210;SDS011;47075;45.114;20.738;2022-12-20T01:36:16;24.52;;;12.57;;
61210;SDS011;47075;45.114;20.738;2022-12-20T01:38:42;27.95;;;13.55;;
61210;SDS011;47075;45.114;20.738;2022-12-20T01:41:10;18.60;;;8.65;;
61210;SDS011;47075;45.114;20.738;2022-12-20T01:46:18;22.52;;;9.35;;
61210;SDS011;47075;45.114;20.738;2022-12-20T01:48:47;26.35;;;12.52;;
61210;SDS011;47075;45.114;20.738;2022-12-20T01:51:14;21.27;;;9.52;;
61210;SDS011;47075;45.114;20.738;2022-12-20T01:53:40;26.38;;;12.57;;
61210;SDS011;47075;45.114;20.738;2022-12-20T01:56:07;27.60;;;13.30;;
61210;SDS011;47075;45.114;20.738;2022-12-20T01:58:33;24.70;;;11.43;;
61210;SDS011;47075;45.114;20.738;2022-12-20T02:01:02;27.05;;;14.05;;
61210;SDS011;47075;45.114;20.738;2022-12-20T02:03:28;28.05;;;13.48;;
61210;SDS011;47075;45.114;20.738;2022-12-20T02:05:55;31.73;;;13.20;;
61210;SDS011;47075;45.114;20.738;2022-12-20T02:08:21;27.35;;;13.73;;
61210;SDS011;47075;45.114;20.738;2022-12-20T02:11:07;24.90;;;12.40;;
61210;SDS011;47075;45.114;20.738;2022-12-20T02:16:22;28.23;;;14.13;;
61210;SDS011;47075;45.114;20.738;2022-12-20T02:18:51;24.67;;;11.85;;
61210;SDS011;47075;45.114;20.738;2022-12-20T02:24:12;32.13;;;14.85;;
61210;SDS011;47075;45.114;20.738;2022-12-20T02:29:37;28.30;;;11.18;;
61210;SDS011;47075;45.114;20.738;2022-12-20T02:34:40;32.92;;;15.73;;
61210;SDS011;47075;45.114;20.738;2022-12-20T02:37:07;25.08;;;12.25;;
61210;SDS011;47075;45.114;20.738;2022-12-20T02:39:33;23.83;;;12.25;;
61210;SDS011;47075;45.114;20.738;2022-12-20T02:42:02;28.67;;;13.90;;
61210;SDS011;47075;45.114;20.738;2022-12-20T02:44:29;21.55;;;10.00;;
61210;SDS011;47075;45.114;20.738;2022-12-20T02:47:17;26.13;;;12.15;;
61210;SDS011;47075;45.114;20.738;2022-12-20T02:49:45;24.55;;;12.40;;
61210;SDS011;47075;45.114;20.738;2022-12-20T02:52:11;28.48;;;12.32;;
61210;SDS011;47075;45.114;20.738;2022-12-20T02:54:38;27.80;;;13.38;;
61210;SDS011;47075;45.114;20.738;2022-12-20T02:59:38;27.77;;;12.88;;
61210;SDS011;47075;45.114;20.738;2022-12-20T03:02:06;30.20;;;14.32;;
61210;SDS011;47075;45.114;20.738;2022-12-20T03:04:33;21.60;;;9.45;;
61210;SDS011;47075;45.114;20.738;2022-12-20T03:07:05;26.60;;;13.15;;
61210;SDS011;47075;45.114;20.738;2022-12-20T03:09:33;28.27;;;13.73;;
61210;SDS011;47075;45.114;20.738;2022-12-20T03:12:00;31.90;;;13.75;;
61210;SDS011;47075;45.114;20.738;2022-12-20T03:14:26;28.40;;;12.50;;
61210;SDS011;47075;45.114;20.738;2022-12-20T03:16:53;31.80;;;13.52;;
61210;SDS011;47075;45.114;20.738;2022-12-20T03:19:19;22.08;;;10.25;;
61210;SDS011;47075;45.114;20.738;2022-12-20T03:21:45;26.25;;;11.85;;
61210;SDS011;47075;45.114;20.738;2022-12-20T03:24:11;30.13;;;13.68;;
61210;SDS011;47075;45.114;20.738;2022-12-20T03:26:38;29.13;;;13.63;;
61210;SDS011;47075;45.114;20.738;2022-12-20T03:29:04;25.52;;;11.63;;
61210;SDS011;47075;45.114;20.738;2022-12-20T03:31:30;22.17;;;10.20;;
61210;SDS011;47075;45.114;20.738;2022-12-20T03:33:57;24.90;;;11.88;;
61210;SDS011;47075;45.114;20.738;2022-12-20T03:36:23;27.05;;;11.35;;
61210;SDS011;47075;45.114;20.738;2022-12-20T03:38:50;29.05;;;13.25;;
61210;SDS011;47075;45.114;20.738;2022-12-20T03:41:16;28.83;;;13.45;;
61210;SDS011;47075;45.114;20.738;2022-12-20T03:43:42;30.98;;;13.57;;
61210;SDS011;47075;45.114;20.738;2022-12-20T03:46:09;25.42;;;12.15;;
61210;SDS011;47075;45.114;20.738;2022-12-20T03:48:35;21.17;;;10.65;;
61210;SDS011;47075;45.114;20.738;2022-12-20T03:51:01;26.55;;;13.15;;
61210;SDS011;47075;45.114;20.738;2022-12-20T03:53:27;25.63;;;10.93;;
61210;SDS011;47075;45.114;20.738;2022-12-20T03:55:53;27.42;;;12.95;;
61210;SDS011;47075;45.114;20.738;2022-12-20T03:58:19;29.52;;;14.07;;
61210;SDS011;47075;45.114;20.738;2022-12-20T04:00:45;29.90;;;13.32;;
61210;SDS011;47075;45.114;20.738;2022-12-20T04:03:12;22.70;;;10.07;;
61210;SDS011;47075;45.114;20.738;2022-12-20T04:05:38;30.60;;;14.60;;
61210;SDS011;47075;45.114;20.738;2022-12-20T04:08:04;29.80;;;13.45;;
61210;SDS011;47075;45.114;20.738;2022-12-20T04:10:30;24.38;;;11.55;;
61210;SDS011;47075;45.114;20.738;2022-12-20T04:12:56;29.58;;;14.18;;
61210;SDS011;47075;45.114;20.738;2022-12-20T04:15:22;30.35;;;14.63;;
61210;SDS011;47075;45.114;20.738;2022-12-20T04:17:49;30.58;;;14.93;;
61210;SDS011;47075;45.114;20.738;2022-12-20T04:20:15;29.77;;;14.63;;
61210;SDS011;47075;45.114;20.738;2022-12-20T04:22:48;30.80;;;13.93;;
61210;SDS011;47075;45.114;20.738;2022-12-20T04:25:15;28.02;;;13.68;;
61210;SDS011;47075;45.114;20.738;2022-12-20T04:27:41;27.17;;;12.85;;
61210;SDS011;47075;45.114;20.738;2022-12-20T04:30:08;31.02;;;15.00;;
61210;SDS011;47075;45.114;20.738;2022-12-20T04:32:34;32.60;;;14.48;;
61210;SDS011;47075;45.114;20.738;2022-12-20T04:35:00;31.00;;;14.10;;
61210;SDS011;47075;45.114;20.738;2022-12-20T04:37:28;28.65;;;12.88;;
61210;SDS011;47075;45.114;20.738;2022-12-20T04:39:54;27.13;;;12.75;;
61210;SDS011;47075;45.114;20.738;2022-12-20T04:42:21;24.08;;;11.35;;
61210;SDS011;47075;45.114;20.738;2022-12-20T04:44:47;30.13;;;14.57;;
61210;SDS011;47075;45.114;20.738;2022-12-20T04:47:13;27.05;;;12.98;;
61210;SDS011;47075;45.114;20.738;2022-12-20T04:49:39;28.67;;;13.75;;
61210;SDS011;47075;45.114;20.738;2022-12-20T04:52:05;22.10;;;11.18;;
61210;SDS011;47075;45.114;20.738;2022-12-20T04:54:52;22.60;;;10.55;;
61210;SDS011;47075;45.114;20.738;2022-12-20T04:57:18;22.88;;;8.57;;
61210;SDS011;47075;45.114;20.738;2022-12-20T04:59:44;23.90;;;10.50;;
61210;SDS011;47075;45.114;20.738;2022-12-20T05:02:10;29.77;;;13.73;;
61210;SDS011;47075;45.114;20.738;2022-12-20T05:04:36;27.55;;;12.32;;
61210;SDS011;47075;45.114;20.738;2022-12-20T05:07:02;30.00;;;12.95;;
61210;SDS011;47075;45.114;20.738;2022-12-20T05:09:29;28.67;;;12.88;;
61210;SDS011;47075;45.114;20.738;2022-12-20T05:11:55;26.20;;;11.30;;
61210;SDS011;47075;45.114;20.738;2022-12-20T05:14:21;27.90;;;13.25;;
61210;SDS011;47075;45.114;20.738;2022-12-20T05:16:47;30.20;;;14.25;;
61210;SDS011;47075;45.114;20.738;2022-12-20T05:19:13;26.33;;;13.32;;
61210;SDS011;47075;45.114;20.738;2022-12-20T05:21:39;29.35;;;13.65;;
61210;SDS011;47075;45.114;20.738;2022-12-20T05:24:24;19.80;;;9.32;;
61210;SDS011;47075;45.114;20.738;2022-12-20T05:27:09;31.83;;;14.02;;
61210;SDS011;47075;45.114;20.738;2022-12-20T05:29:35;32.28;;;15.63;;
61210;SDS011;47075;45.114;20.738;2022-12-20T05:32:01;30.33;;;15.25;;
61210;SDS011;47075;45.114;20.738;2022-12-20T05:34:27;26.42;;;13.38;;
61210;SDS011;47075;45.114;20.738;2022-12-20T05:36:54;34.95;;;14.63;;
61210;SDS011;47075;45.114;20.738;2022-12-20T05:39:20;24.42;;;10.65;;
61210;SDS011;47075;45.114;20.738;2022-12-20T05:41:47;27.65;;;13.50;;
61210;SDS011;47075;45.114;20.738;2022-12-20T05:44:14;29.95;;;14.73;;
61210;SDS011;47075;45.114;20.738;2022-12-20T05:46:41;28.38;;;13.55;;
61210;SDS011;47075;45.114;20.738;2022-12-20T05:49:07;29.00;;;12.32;;
61210;SDS011;47075;45.114;20.738;2022-12-20T05:51:33;24.27;;;10.75;;
61210;SDS011;47075;45.114;20.738;2022-12-20T05:53:59;30.40;;;14.48;;
61210;SDS011;47075;45.114;20.738;2022-12-20T05:56:25;28.30;;;13.73;;
61210;SDS011;47075;45.114;20.738;2022-12-20T05:58:52;27.83;;;13.60;;
61210;SDS011;47075;45.114;20.738;2022-12-20T06:01:18;24.10;;;11.27;;
61210;SDS011;47075;45.114;20.738;2022-12-20T06:03:44;31.70;;;14.85;;
61210;SDS011;47075;45.114;20.738;2022-12-20T06:06:11;22.75;;;9.73;;
61210;SDS011;47075;45.114;20.738;2022-12-20T06:08:37;31.70;;;15.43;;
61210;SDS011;47075;45.114;20.738;2022-12-20T06:11:03;33.10;;;14.27;;
61210;SDS011;47075;45.114;20.738;2022-12-20T06:13:31;26.20;;;11.63;;
61210;SDS011;47075;45.114;20.738;2022-12-20T06:15:57;23.42;;;11.45;;
61210;SDS011;47075;45.114;20.738;2022-12-20T06:18:24;21.67;;;10.50;;
61210;SDS011;47075;45.114;20.738;2022-12-20T06:20:51;28.55;;;12.75;;
61210;SDS011;47075;45.114;20.738;2022-12-20T06:23:17;29.08;;;12.90;;
61210;SDS011;47075;45.114;20.738;2022-12-20T06:25:44;26.45;;;13.02;;
61210;SDS011;47075;45.114;20.738;2022-12-20T06:28:10;23.45;;;11.13;;
61210;SDS011;47075;45.114;20.738;2022-12-20T06:30:36;24.80;;;11.73;;
61210;SDS011;47075;45.114;20.738;2022-12-20T06:33:03;23.60;;;12.30;;
61210;SDS011;47075;45.114;20.738;2022-12-20T06:35:29;26.80;;;13.63;;
61210;SDS011;47075;45.114;20.738;2022-12-20T06:37:55;26.52;;;13.68;;
61210;SDS011;47075;45.114;20.738;2022-12-20T06:40:22;20.55;;;9.35;;
61210;SDS011;47075;45.114;20.738;2022-12-20T06:42:48;18.83;;;8.05;;
61210;SDS011;47075;45.114;20.738;2022-12-20T06:45:14;19.17;;;9.77;;
61210;SDS011;47075;45.114;20.738;2022-12-20T06:47:40;25.42;;;12.32;;
61210;SDS011;47075;45.114;20.738;2022-12-20T06:50:07;19.73;;;8.65;;
61210;SDS011;47075;45.114;20.738;2022-12-20T06:52:33;30.42;;;14.50;;
61210;SDS011;47075;45.114;20.738;2022-12-20T06:54:59;23.52;;;10.73;;
61210;SDS011;47075;45.114;20.738;2022-12-20T06:57:25;24.70;;;12.85;;
61210;SDS011;47075;45.114;20.738;2022-12-20T06:59:52;25.83;;;13.13;;
61210;SDS011;47075;45.114;20.738;2022-12-20T07:02:18;26.00;;;13.98;;
61210;SDS011;47075;45.114;20.738;2022-12-20T07:04:44;24.70;;;11.30;;
61210;SDS011;47075;45.114;20.738;2022-12-20T07:07:11;25.42;;;12.18;;
61210;SDS011;47075;45.114;20.738;2022-12-20T07:09:37;20.67;;;10.50;;
61210;SDS011;47075;45.114;20.738;2022-12-20T07:12:05;24.55;;;12.60;;
61210;SDS011;47075;45.114;20.738;2022-12-20T07:14:32;19.80;;;10.10;;
61210;SDS011;47075;45.114;20.738;2022-12-20T07:16:58;26.13;;;14.75;;
61210;SDS011;47075;45.114;20.738;2022-12-20T07:19:24;25.38;;;11.02;;
61210;SDS011;47075;45.114;20.738;2022-12-20T07:21:50;27.15;;;14.40;;
61210;SDS011;47075;45.114;20.738;2022-12-20T07:24:16;24.92;;;13.82;;
61210;SDS011;47075;45.114;20.738;2022-12-20T07:26:43;25.65;;;13.60;;
61210;SDS011;47075;45.114;20.738;2022-12-20T07:29:10;25.20;;;14.30;;
61210;SDS011;47075;45.114;20.738;2022-12-20T07:31:36;21.45;;;10.73;;
61210;SDS011;47075;45.114;20.738;2022-12-20T07:34:02;24.23;;;12.95;;
61210;SDS011;47075;45.114;20.738;2022-12-20T07:36:29;24.42;;;12.82;;
61210;SDS011;47075;45.114;20.738;2022-12-20T07:38:55;24.38;;;13.20;;
61210;SDS011;47075;45.114;20.738;2022-12-20T07:41:21;22.83;;;11.75;;
61210;SDS011;47075;45.114;20.738;2022-12-20T07:43:49;23.75;;;12.23;;
61210;SDS011;47075;45.114;20.738;2022-12-20T07:46:15;22.92;;;12.82;;
61210;SDS011;47075;45.114;20.738;2022-12-20T07:48:42;23.67;;;12.13;;
61210;SDS011;47075;45.114;20.738;2022-12-20T07:51:09;22.00;;;12.40;;
61210;SDS011;47075;45.114;20.738;2022-12-20T07:53:37;22.15;;;11.88;;
61210;SDS011;47075;45.114;20.738;2022-12-20T07:56:05;20.95;;;10.93;;
61210;SDS011;47075;45.114;20.738;2022-12-20T07:58:32;21.50;;;10.95;;
61210;SDS011;47075;45.114;20.738;2022-12-20T08:01:00;18.05;;;8.25;;
61210;SDS011;47075;45.114;20.738;2022-12-20T08:03:29;23.73;;;12.57;;
61210;SDS011;47075;45.114;20.738;2022-12-20T08:05:58;22.25;;;12.90;;
61210;SDS011;47075;45.114;20.738;2022-12-20T08:08:27;18.30;;;9.77;;
61210;SDS011;47075;45.114;20.738;2022-12-20T08:10:54;21.33;;;11.48;;
61210;SDS011;47075;45.114;20.738;2022-12-20T08:13:20;22.67;;;11.98;;
61210;SDS011;47075;45.114;20.738;2022-12-20T08:15:47;22.35;;;11.93;;
61210;SDS011;47075;45.114;20.738;2022-12-20T08:18:13;17.48;;;9.57;;
61210;SDS011;47075;45.114;20.738;2022-12-20T08:20:40;21.27;;;12.05;;
61210;SDS011;47075;45.114;20.738;2022-12-20T08:23:06;20.85;;;10.90;;
61210;SDS011;47075;45.114;20.738;2022-12-20T08:25:33;23.38;;;11.85;;
61210;SDS011;47075;45.114;20.738;2022-12-20T08:27:59;20.20;;;11.35;;
61210;SDS011;47075;45.114;20.738;2022-12-20T08:30:27;21.70;;;11.85;;
61210;SDS011;47075;45.114;20.738;2022-12-20T08:32:53;22.65;;;12.02;;
61210;SDS011;47075;45.114;20.738;2022-12-20T08:35:19;26.98;;;11.77;;
61210;SDS011;47075;45.114;20.738;2022-12-20T08:37:46;25.58;;;11.85;;
61210;SDS011;47075;45.114;20.738;2022-12-20T08:40:12;23.40;;;12.55;;
61210;SDS011;47075;45.114;20.738;2022-12-20T08:42:38;21.65;;;10.95;;
61210;SDS011;47075;45.114;20.738;2022-12-20T08:45:05;21.02;;;11.93;;
61210;SDS011;47075;45.114;20.738;2022-12-20T08:47:31;25.25;;;12.43;;
61210;SDS011;47075;45.114;20.738;2022-12-20T08:49:57;24.35;;;12.32;;
61210;SDS011;47075;45.114;20.738;2022-12-20T08:52:23;19.88;;;10.95;;
61210;SDS011;47075;45.114;20.738;2022-12-20T08:54:49;21.33;;;11.70;;
61210;SDS011;47075;45.114;20.738;2022-12-20T08:57:15;20.83;;;11.38;;
61210;SDS011;47075;45.114;20.738;2022-12-20T08:59:42;24.52;;;12.05;;
61210;SDS011;47075;45.114;20.738;2022-12-20T09:02:08;25.10;;;12.50;;
61210;SDS011;47075;45.114;20.738;2022-12-20T09:04:34;22.83;;;10.13;;
61210;SDS011;47075;45.114;20.738;2022-12-20T09:07:00;22.58;;;11.85;;
61210;SDS011;47075;45.114;20.738;2022-12-20T09:09:27;23.13;;;11.27;;
61210;SDS011;47075;45.114;20.738;2022-12-20T09:11:53;21.45;;;11.32;;
61210;SDS011;47075;45.114;20.738;2022-12-20T09:14:19;23.08;;;11.70;;
61210;SDS011;47075;45.114;20.738;2022-12-20T09:16:45;23.65;;;11.77;;
61210;SDS011;47075;45.114;20.738;2022-12-20T09:19:12;19.90;;;11.18;;
61210;SDS011;47075;45.114;20.738;2022-12-20T09:21:38;23.42;;;12.38;;
61210;SDS011;47075;45.114;20.738;2022-12-20T09:24:05;21.63;;;11.48;;
61210;SDS011;47075;45.114;20.738;2022-12-20T09:26:31;24.45;;;12.00;;
61210;SDS011;47075;45.114;20.738;2022-12-20T09:28:59;21.95;;;10.77;;
61210;SDS011;47075;45.114;20.738;2022-12-20T09:31:26;23.70;;;11.38;;
61210;SDS011;47075;45.114;20.738;2022-12-20T09:33:52;22.83;;;11.88;;
61210;SDS011;47075;45.114;20.738;2022-12-20T09:36:19;21.63;;;11.45;;
61210;SDS011;47075;45.114;20.738;2022-12-20T09:38:46;22.48;;;11.77;;
61210;SDS011;47075;45.114;20.738;2022-12-20T09:41:28;22.45;;;11.75;;
61210;SDS011;47075;45.114;20.738;2022-12-20T09:43:56;20.30;;;11.32;;
61210;SDS011;47075;45.114;20.738;2022-12-20T09:46:23;24.92;;;12.02;;
61210;SDS011;47075;45.114;20.738;2022-12-20T09:48:49;22.60;;;11.27;;
61210;SDS011;47075;45.114;20.738;2022-12-20T09:54:55;20.58;;;10.82;;
61210;SDS011;47075;45.114;20.738;2022-12-20T09:59:18;20.27;;;10.55;;
61210;SDS011;47075;45.114;20.738;2022-12-20T10:01:45;20.80;;;10.85;;
61210;SDS011;47075;45.114;20.738;2022-12-20T10:04:22;21.75;;;10.98;;
61210;SDS011;47075;45.114;20.738;2022-12-20T10:06:52;18.33;;;9.85;;
61210;SDS011;47075;45.114;20.738;2022-12-20T10:16:54;20.40;;;10.65;;
61210;SDS011;47075;45.114;20.738;2022-12-20T10:22:16;20.85;;;10.65;;
61210;SDS011;47075;45.114;20.738;2022-12-20T10:25:28;20.20;;;10.23;;
61210;SDS011;47075;45.114;20.738;2022-12-20T10:27:34;17.30;;;9.80;;
61210;SDS011;47075;45.114;20.738;2022-12-20T10:30:04;19.20;;;10.02;;
61210;SDS011;47075;45.114;20.738;2022-12-20T10:32:35;17.80;;;9.43;;
61210;SDS011;47075;45.114;20.738;2022-12-20T10:42:53;17.15;;;9.45;;
61210;SDS011;47075;45.114;20.738;2022-12-20T10:47:47;16.95;;;9.45;;
61210;SDS011;47075;45.114;20.738;2022-12-20T10:50:22;17.42;;;9.43;;
61210;SDS011;47075;45.114;20.738;2022-12-20T10:53:10;17.50;;;9.20;;
61210;SDS011;47075;45.114;20.738;2022-12-20T10:55:41;17.52;;;9.05;;
61210;SDS011;47075;45.114;20.738;2022-12-20T10:58:20;16.48;;;8.80;;
61210;SDS011;47075;45.114;20.738;2022-12-20T11:00:47;16.27;;;8.98;;
61210;SDS011;47075;45.114;20.738;2022-12-20T11:03:15;18.00;;;9.15;;
61210;SDS011;47075;45.114;20.738;2022-12-20T11:05:54;19.00;;;9.18;;
61210;SDS011;47075;45.114;20.738;2022-12-20T11:08:21;18.48;;;8.73;;
61210;SDS011;47075;45.114;20.738;2022-12-20T11:10:49;18.92;;;8.93;;
61210;SDS011;47075;45.114;20.738;2022-12-20T11:13:23;17.80;;;9.02;;
61210;SDS011;47075;45.114;20.738;2022-12-20T11:15:54;18.20;;;7.90;;
61210;SDS011;47075;45.114;20.738;2022-12-20T11:28:50;18.70;;;9.38;;
61210;SDS011;47075;45.114;20.738;2022-12-20T11:31:38;18.25;;;8.63;;
61210;SDS011;47075;45.114;20.738;2022-12-20T11:34:18;17.63;;;9.00;;
61210;SDS011;47075;45.114;20.738;2022-12-20T11:39:14;17.27;;;8.70;;
61210;SDS011;47075;45.114;20.738;2022-12-20T11:41:46;17.60;;;8.88;;
61210;SDS011;47075;45.114;20.738;2022-12-20T11:54:25;17.95;;;9.00;;
61210;SDS011;47075;45.114;20.738;2022-12-20T11:56:54;17.48;;;8.27;;
61210;SDS011;47075;45.114;20.738;2022-12-20T12:00:05;18.20;;;8.68;;
61210;SDS011;47075;45.114;20.738;2022-12-20T12:02:13;19.38;;;9.65;;
61210;SDS011;47075;45.114;20.738;2022-12-20T12:04:48;17.52;;;9.02;;
61210;SDS011;47075;45.114;20.738;2022-12-20T12:07:17;17.13;;;8.45;;
61210;SDS011;47075;45.114;20.738;2022-12-20T12:09:50;16.40;;;8.90;;
61210;SDS011;47075;45.114;20.738;2022-12-20T12:12:24;16.67;;;8.70;;
61210;SDS011;47075;45.114;20.738;2022-12-20T12:15:05;18.85;;;8.65;;
61210;SDS011;47075;45.114;20.738;2022-12-20T12:22:40;17.30;;;8.57;;
61210;SDS011;47075;45.114;20.738;2022-12-20T12:25:08;16.58;;;8.90;;
61210;SDS011;47075;45.114;20.738;2022-12-20T12:27:37;15.80;;;7.53;;
61210;SDS011;47075;45.114;20.738;2022-12-20T12:30:04;16.40;;;8.05;;
61210;SDS011;47075;45.114;20.738;2022-12-20T12:32:32;18.58;;;9.50;;
61210;SDS011;47075;45.114;20.738;2022-12-20T12:37:54;17.45;;;8.70;;
61210;SDS011;47075;45.114;20.738;2022-12-20T12:40:31;15.70;;;8.45;;
61210;SDS011;47075;45.114;20.738;2022-12-20T12:45:45;17.75;;;8.80;;
61210;SDS011;47075;45.114;20.738;2022-12-20T12:48:21;19.17;;;9.07;;
61210;SDS011;47075;45.114;20.738;2022-12-20T12:50:50;14.95;;;7.93;;
61210;SDS011;47075;45.114;20.738;2022-12-20T12:55:45;15.85;;;8.48;;
61210;SDS011;47075;45.114;20.738;2022-12-20T13:00:58;14.70;;;7.75;;
61210;SDS011;47075;45.114;20.738;2022-12-20T13:06:41;16.40;;;8.48;;
61210;SDS011;47075;45.114;20.738;2022-12-20T13:11:31;15.20;;;7.82;;
61210;SDS011;47075;45.114;20.738;2022-12-20T13:14:11;15.50;;;7.78;;
61210;SDS011;47075;45.114;20.738;2022-12-20T13:21:55;16.02;;;7.45;;
61210;SDS011;47075;45.114;20.738;2022-12-20T13:24:34;16.98;;;8.77;;
61210;SDS011;47075;45.114;20.738;2022-12-20T13:27:23;13.93;;;7.38;;
61210;SDS011;47075;45.114;20.738;2022-12-20T13:29:53;14.63;;;7.22;;
61210;SDS011;47075;45.114;20.738;2022-12-20T13:35:25;16.17;;;7.68;;
61210;SDS011;47075;45.114;20.738;2022-12-20T13:40:22;14.23;;;7.55;;
61210;SDS011;47075;45.114;20.738;2022-12-20T13:42:50;15.32;;;6.97;;
61210;SDS011;47075;45.114;20.738;2022-12-20T13:45:18;14.50;;;6.90;;
61210;SDS011;47075;45.114;20.738;2022-12-20T13:47:45;14.27;;;6.75;;
61210;SDS011;47075;45.114;20.738;2022-12-20T13:50:24;15.55;;;7.40;;
61210;SDS011;47075;45.114;20.738;2022-12-20T13:52:52;15.60;;;7.20;;
61210;SDS011;47075;45.114;20.738;2022-12-20T13:55:24;14.35;;;7.15;;
61210;SDS011;47075;45.114;20.738;2022-12-20T13:57:50;14.98;;;7.22;;
61210;SDS011;47075;45.114;20.738;2022-12-20T14:00:17;14.23;;;7.28;;
61210;SDS011;47075;45.114;20.738;2022-12-20T14:02:43;14.75;;;7.45;;
61210;SDS011;47075;45.114;20.738;2022-12-20T14:07:39;13.07;;;7.15;;
61210;SDS011;47075;45.114;20.738;2022-12-20T14:10:16;15.93;;;8.25;;
61210;SDS011;47075;45.114;20.738;2022-12-20T14:12:44;14.80;;;7.70;;
61210;SDS011;47075;45.114;20.738;2022-12-20T14:15:24;15.52;;;7.70;;
61210;SDS011;47075;45.114;20.738;2022-12-20T14:17:50;20.33;;;7.70;;
61210;SDS011;47075;45.114;20.738;2022-12-20T14:20:19;14.88;;;7.53;;
61210;SDS011;47075;45.114;20.738;2022-12-20T14:25:40;14.90;;;6.63;;
61210;SDS011;47075;45.114;20.738;2022-12-20T14:28:05;14.85;;;6.97;;
61210;SDS011;47075;45.114;20.738;2022-12-20T14:30:41;14.90;;;6.88;;
61210;SDS011;47075;45.114;20.738;2022-12-20T14:33:17;15.25;;;6.15;;
61210;SDS011;47075;45.114;20.738;2022-12-20T14:35:48;14.02;;;7.13;;
61210;SDS011;47075;45.114;20.738;2022-12-20T14:38:23;13.68;;;6.65;;
61210;SDS011;47075;45.114;20.738;2022-12-20T14:40:50;14.60;;;6.82;;
61210;SDS011;47075;45.114;20.738;2022-12-20T14:43:23;12.77;;;6.05;;
61210;SDS011;47075;45.114;20.738;2022-12-20T14:46:05;14.38;;;7.00;;
61210;SDS011;47075;45.114;20.738;2022-12-20T14:48:31;15.23;;;7.35;;
61210;SDS011;47075;45.114;20.738;2022-12-20T14:50:57;14.27;;;6.85;;
61210;SDS011;47075;45.114;20.738;2022-12-20T14:53:24;13.85;;;6.60;;
61210;SDS011;47075;45.114;20.738;2022-12-20T14:55:54;16.17;;;7.50;;
61210;SDS011;47075;45.114;20.738;2022-12-20T14:58:27;14.68;;;7.32;;
61210;SDS011;47075;45.114;20.738;2022-12-20T15:00:55;15.10;;;7.70;;
61210;SDS011;47075;45.114;20.738;2022-12-20T15:03:22;15.30;;;6.35;;
61210;SDS011;47075;45.114;20.738;2022-12-20T15:05:50;15.77;;;7.15;;
61210;SDS011;47075;45.114;20.738;2022-12-20T15:10:54;14.30;;;7.03;;
61210;SDS011;47075;45.114;20.738;2022-12-20T15:13:23;12.70;;;5.38;;
61210;SDS011;47075;45.114;20.738;2022-12-20T15:15:50;15.38;;;7.47;;
61210;SDS011;47075;45.114;20.738;2022-12-20T15:18:17;14.60;;;7.30;;
61210;SDS011;47075;45.114;20.738;2022-12-20T15:20:45;14.88;;;6.75;;
61210;SDS011;47075;45.114;20.738;2022-12-20T15:23:16;13.13;;;6.75;;
61210;SDS011;47075;45.114;20.738;2022-12-20T15:25:43;13.80;;;6.63;;
61210;SDS011;47075;45.114;20.738;2022-12-20T15:28:16;16.90;;;6.85;;
61210;SDS011;47075;45.114;20.738;2022-12-20T15:30:44;14.13;;;7.10;;
61210;SDS011;47075;45.114;20.738;2022-12-20T15:33:32;15.55;;;7.20;;
61210;SDS011;47075;45.114;20.738;2022-12-20T15:35:58;15.55;;;7.78;;
61210;SDS011;47075;45.114;20.738;2022-12-20T15:38:24;18.05;;;7.72;;
61210;SDS011;47075;45.114;20.738;2022-12-20T15:40:55;16.42;;;7.88;;
61210;SDS011;47075;45.114;20.738;2022-12-20T15:43:25;13.73;;;6.57;;
61210;SDS011;47075;45.114;20.738;2022-12-20T15:45:52;13.77;;;7.30;;
61210;SDS011;47075;45.114;20.738;2022-12-20T15:48:20;17.55;;;7.72;;
61210;SDS011;47075;45.114;20.738;2022-12-20T15:50:53;12.85;;;6.20;;
61210;SDS011;47075;45.114;20.738;2022-12-20T15:53:30;13.73;;;6.80;;
61210;SDS011;47075;45.114;20.738;2022-12-20T15:55:57;16.88;;;6.72;;
61210;SDS011;47075;45.114;20.738;2022-12-20T15:58:24;14.65;;;7.28;;
61210;SDS011;47075;45.114;20.738;2022-12-20T16:00:52;16.23;;;7.28;;
61210;SDS011;47075;45.114;20.738;2022-12-20T16:03:19;14.15;;;6.10;;
61210;SDS011;47075;45.114;20.738;2022-12-20T16:05:47;13.35;;;6.88;;